sensor_id;sensor_type;location;lat;lon;timestamp;P1;durP1;ratioP1;P2;durP2;ratioP2
24137;SDS011;17947;50.672;6.076;2023-02-18T00:01:14;0.70;;;0.70;;
24137;SDS011;17947;50.672;6.076;2023-02-18T00:03:40;0.80;;;0.80;;
24137;SDS011;17947;50.672;6.076;2023-02-18T00:06:17;0.90;;;0.90;;
24137;SDS011;17947;50.672;6.076;2023-02-18T00:08:44;0.75;;;0.75;;
24137;SDS011;17947;50.672;6.076;2023-02-18T00:11:11;0.98;;;0.95;;
24137;SDS011;17947;50.672;6.076;2023-02-18T00:13:37;1.00;;;0.80;;
24137;SDS011;17947;50.672;6.076;2023-02-18T00:16:12;0.90;;;0.90;;
24137;SDS011;17947;50.672;6.076;2023-02-18T00:18:38;0.73;;;0.73;;
24137;SDS011;17947;50.672;6.076;2023-02-18T00:21:04;0.70;;;0.70;;
24137;SDS011;17947;50.672;6.076;2023-02-18T00:23:30;1.20;;;0.73;;
24137;SDS011;17947;50.672;6.076;2023-02-18T00:26:13;0.80;;;0.80;;
24137;SDS011;17947;50.672;6.076;2023-02-18T00:28:40;0.95;;;0.80;;
24137;SDS011;17947;50.672;6.076;2023-02-18T00:31:07;0.70;;;0.70;;
24137;SDS011;17947;50.672;6.076;2023-02-18T00:33:33;0.88;;;0.70;;
24137;SDS011;17947;50.672;6.076;2023-02-18T00:36:03;0.82;;;0.73;;
24137;SDS011;17947;50.672;6.076;2023-02-18T00:38:29;0.65;;;0.65;;
24137;SDS011;17947;50.672;6.076;2023-02-18T00:40:55;0.60;;;0.60;;
24137;SDS011;17947;50.672;6.076;2023-02-18T00:43:21;0.57;;;0.57;;
24137;SDS011;17947;50.672;6.076;2023-02-18T00:45:47;0.73;;;0.70;;
24137;SDS011;17947;50.672;6.076;2023-02-18T00:48:13;0.65;;;0.65;;
24137;SDS011;17947;50.672;6.076;2023-02-18T00:50:39;1.02;;;0.80;;
24137;SDS011;17947;50.672;6.076;2023-02-18T00:53:05;0.60;;;0.60;;
24137;SDS011;17947;50.672;6.076;2023-02-18T00:55:31;1.45;;;0.80;;
24137;SDS011;17947;50.672;6.076;2023-02-18T00:57:57;0.50;;;0.50;;
24137;SDS011;17947;50.672;6.076;2023-02-18T01:00:23;0.50;;;0.50;;
24137;SDS011;17947;50.672;6.076;2023-02-18T01:02:50;0.98;;;0.80;;
24137;SDS011;17947;50.672;6.076;2023-02-18T01:05:19;0.55;;;0.55;;
24137;SDS011;17947;50.672;6.076;2023-02-18T01:07:45;0.65;;;0.65;;
24137;SDS011;17947;50.672;6.076;2023-02-18T01:10:11;0.57;;;0.55;;
24137;SDS011;17947;50.672;6.076;2023-02-18T01:12:37;0.60;;;0.60;;
24137;SDS011;17947;50.672;6.076;2023-02-18T01:15:04;0.43;;;0.43;;
24137;SDS011;17947;50.672;6.076;2023-02-18T01:17:30;0.50;;;0.50;;
24137;SDS011;17947;50.672;6.076;2023-02-18T01:19:56;0.50;;;0.50;;
24137;SDS011;17947;50.672;6.076;2023-02-18T01:22:23;0.50;;;0.50;;
24137;SDS011;17947;50.672;6.076;2023-02-18T01:24:49;0.50;;;0.50;;
24137;SDS011;17947;50.672;6.076;2023-02-18T01:27:16;0.50;;;0.50;;
24137;SDS011;17947;50.672;6.076;2023-02-18T01:29:42;0.40;;;0.40;;
24137;SDS011;17947;50.672;6.076;2023-02-18T01:32:08;0.50;;;0.50;;
24137;SDS011;17947;50.672;6.076;2023-02-18T01:34:34;0.40;;;0.40;;
24137;SDS011;17947;50.672;6.076;2023-02-18T01:37:00;0.70;;;0.50;;
24137;SDS011;17947;50.672;6.076;2023-02-18T01:39:26;0.50;;;0.50;;
24137;SDS011;17947;50.672;6.076;2023-02-18T01:41:52;0.35;;;0.35;;
24137;SDS011;17947;50.672;6.076;2023-02-18T01:44:22;0.50;;;0.50;;
24137;SDS011;17947;50.672;6.076;2023-02-18T01:46:48;0.40;;;0.40;;
24137;SDS011;17947;50.672;6.076;2023-02-18T01:49:18;0.30;;;0.30;;
24137;SDS011;17947;50.672;6.076;2023-02-18T01:51:46;0.50;;;0.50;;
24137;SDS011;17947;50.672;6.076;2023-02-18T01:54:15;0.40;;;0.40;;
24137;SDS011;17947;50.672;6.076;2023-02-18T01:56:44;0.40;;;0.40;;
24137;SDS011;17947;50.672;6.076;2023-02-18T01:59:12;0.30;;;0.30;;
24137;SDS011;17947;50.672;6.076;2023-02-18T02:01:39;0.40;;;0.40;;
24137;SDS011;17947;50.672;6.076;2023-02-18T02:04:06;0.40;;;0.40;;
24137;SDS011;17947;50.672;6.076;2023-02-18T02:06:32;0.40;;;0.40;;
24137;SDS011;17947;50.672;6.076;2023-02-18T02:08:59;0.40;;;0.30;;
24137;SDS011;17947;50.672;6.076;2023-02-18T02:11:30;0.40;;;0.40;;
24137;SDS011;17947;50.672;6.076;2023-02-18T02:22:22;0.47;;;0.47;;
24137;SDS011;17947;50.672;6.076;2023-02-18T02:27:21;0.30;;;0.30;;
24137;SDS011;17947;50.672;6.076;2023-02-18T02:29:53;0.30;;;0.30;;
24137;SDS011;17947;50.672;6.076;2023-02-18T02:35:19;0.30;;;0.30;;
24137;SDS011;17947;50.672;6.076;2023-02-18T02:37:48;0.38;;;0.38;;
24137;SDS011;17947;50.672;6.076;2023-02-18T02:42:57;0.40;;;0.40;;
24137;SDS011;17947;50.672;6.076;2023-02-18T02:47:59;0.30;;;0.30;;
24137;SDS011;17947;50.672;6.076;2023-02-18T02:50:43;0.40;;;0.40;;
24137;SDS011;17947;50.672;6.076;2023-02-18T02:53:12;0.38;;;0.38;;
24137;SDS011;17947;50.672;6.076;2023-02-18T02:55:39;0.40;;;0.40;;
24137;SDS011;17947;50.672;6.076;2023-02-18T02:58:05;0.40;;;0.40;;
24137;SDS011;17947;50.672;6.076;2023-02-18T03:04:03;0.30;;;0.30;;
24137;SDS011;17947;50.672;6.076;2023-02-18T03:11:08;0.28;;;0.28;;
24137;SDS011;17947;50.672;6.076;2023-02-18T03:13:39;0.20;;;0.20;;
24137;SDS011;17947;50.672;6.076;2023-02-18T03:16:17;0.30;;;0.30;;
24137;SDS011;17947;50.672;6.076;2023-02-18T03:18:47;0.35;;;0.35;;
24137;SDS011;17947;50.672;6.076;2023-02-18T03:21:48;0.30;;;0.30;;
24137;SDS011;17947;50.672;6.076;2023-02-18T03:24:12;0.30;;;0.30;;
24137;SDS011;17947;50.672;6.076;2023-02-18T03:26:40;0.30;;;0.30;;
24137;SDS011;17947;50.672;6.076;2023-02-18T03:29:08;0.30;;;0.30;;
24137;SDS011;17947;50.672;6.076;2023-02-18T03:31:35;0.20;;;0.20;;
24137;SDS011;17947;50.672;6.076;2023-02-18T03:34:07;0.30;;;0.30;;
24137;SDS011;17947;50.672;6.076;2023-02-18T03:36:34;0.30;;;0.30;;
24137;SDS011;17947;50.672;6.076;2023-02-18T03:39:02;0.22;;;0.22;;
24137;SDS011;17947;50.672;6.076;2023-02-18T03:41:30;0.28;;;0.28;;
24137;SDS011;17947;50.672;6.076;2023-02-18T03:44:01;0.30;;;0.30;;
24137;SDS011;17947;50.672;6.076;2023-02-18T03:46:28;0.30;;;0.30;;
24137;SDS011;17947;50.672;6.076;2023-02-18T03:48:55;0.28;;;0.28;;
24137;SDS011;17947;50.672;6.076;2023-02-18T03:51:21;0.30;;;0.30;;
24137;SDS011;17947;50.672;6.076;2023-02-18T03:53:47;0.25;;;0.25;;
24137;SDS011;17947;50.672;6.076;2023-02-18T03:56:13;0.20;;;0.20;;
24137;SDS011;17947;50.672;6.076;2023-02-18T03:58:40;0.30;;;0.30;;
24137;SDS011;17947;50.672;6.076;2023-02-18T04:01:06;0.20;;;0.20;;
24137;SDS011;17947;50.672;6.076;2023-02-18T04:03:32;0.30;;;0.30;;
24137;SDS011;17947;50.672;6.076;2023-02-18T04:05:57;0.30;;;0.30;;
24137;SDS011;17947;50.672;6.076;2023-02-18T04:08:24;0.55;;;0.40;;
24137;SDS011;17947;50.672;6.076;2023-02-18T04:10:50;0.20;;;0.20;;
24137;SDS011;17947;50.672;6.076;2023-02-18T04:13:16;0.30;;;0.30;;
24137;SDS011;17947;50.672;6.076;2023-02-18T04:15:43;0.20;;;0.20;;
24137;SDS011;17947;50.672;6.076;2023-02-18T04:18:09;0.22;;;0.22;;
24137;SDS011;17947;50.672;6.076;2023-02-18T04:20:35;0.20;;;0.20;;
24137;SDS011;17947;50.672;6.076;2023-02-18T04:23:02;0.20;;;0.20;;
24137;SDS011;17947;50.672;6.076;2023-02-18T04:25:28;0.38;;;0.38;;
24137;SDS011;17947;50.672;6.076;2023-02-18T04:27:54;0.45;;;0.32;;
24137;SDS011;17947;50.672;6.076;2023-02-18T04:30:20;0.30;;;0.30;;
24137;SDS011;17947;50.672;6.076;2023-02-18T04:32:46;0.20;;;0.20;;
24137;SDS011;17947;50.672;6.076;2023-02-18T04:35:12;0.20;;;0.20;;
24137;SDS011;17947;50.672;6.076;2023-02-18T04:37:38;0.30;;;0.30;;
24137;SDS011;17947;50.672;6.076;2023-02-18T04:40:04;0.20;;;0.20;;
24137;SDS011;17947;50.672;6.076;2023-02-18T04:42:31;0.30;;;0.30;;
24137;SDS011;17947;50.672;6.076;2023-02-18T04:44:57;0.30;;;0.30;;
24137;SDS011;17947;50.672;6.076;2023-02-18T04:47:23;0.25;;;0.25;;
24137;SDS011;17947;50.672;6.076;2023-02-18T04:49:49;0.30;;;0.30;;
24137;SDS011;17947;50.672;6.076;2023-02-18T04:52:15;0.32;;;0.20;;
24137;SDS011;17947;50.672;6.076;2023-02-18T04:54:41;0.30;;;0.30;;
24137;SDS011;17947;50.672;6.076;2023-02-18T04:57:07;0.55;;;0.30;;
24137;SDS011;17947;50.672;6.076;2023-02-18T04:59:33;0.20;;;0.20;;
24137;SDS011;17947;50.672;6.076;2023-02-18T05:01:59;0.32;;;0.32;;
24137;SDS011;17947;50.672;6.076;2023-02-18T05:04:25;0.20;;;0.20;;
24137;SDS011;17947;50.672;6.076;2023-02-18T05:06:51;0.20;;;0.20;;
24137;SDS011;17947;50.672;6.076;2023-02-18T05:09:17;0.20;;;0.20;;
24137;SDS011;17947;50.672;6.076;2023-02-18T05:11:43;0.30;;;0.30;;
24137;SDS011;17947;50.672;6.076;2023-02-18T05:14:09;0.20;;;0.20;;
24137;SDS011;17947;50.672;6.076;2023-02-18T05:16:35;0.20;;;0.20;;
24137;SDS011;17947;50.672;6.076;2023-02-18T05:19:01;0.20;;;0.20;;
24137;SDS011;17947;50.672;6.076;2023-02-18T05:21:27;0.20;;;0.20;;
24137;SDS011;17947;50.672;6.076;2023-02-18T05:23:53;0.20;;;0.20;;
24137;SDS011;17947;50.672;6.076;2023-02-18T05:26:19;0.20;;;0.20;;
24137;SDS011;17947;50.672;6.076;2023-02-18T05:28:45;0.20;;;0.20;;
24137;SDS011;17947;50.672;6.076;2023-02-18T05:31:11;0.20;;;0.20;;
24137;SDS011;17947;50.672;6.076;2023-02-18T05:33:37;0.20;;;0.20;;
24137;SDS011;17947;50.672;6.076;2023-02-18T05:36:03;0.20;;;0.20;;
24137;SDS011;17947;50.672;6.076;2023-02-18T05:38:29;0.20;;;0.20;;
24137;SDS011;17947;50.672;6.076;2023-02-18T05:40:55;0.20;;;0.20;;
24137;SDS011;17947;50.672;6.076;2023-02-18T05:43:21;0.20;;;0.20;;
24137;SDS011;17947;50.672;6.076;2023-02-18T05:45:47;0.20;;;0.20;;
24137;SDS011;17947;50.672;6.076;2023-02-18T05:48:13;0.20;;;0.20;;
24137;SDS011;17947;50.672;6.076;2023-02-18T05:50:39;0.28;;;0.28;;
24137;SDS011;17947;50.672;6.076;2023-02-18T05:53:05;0.20;;;0.20;;
24137;SDS011;17947;50.672;6.076;2023-02-18T05:55:31;0.20;;;0.20;;
24137;SDS011;17947;50.672;6.076;2023-02-18T05:58:02;0.20;;;0.20;;
24137;SDS011;17947;50.672;6.076;2023-02-18T06:00:28;0.20;;;0.20;;
24137;SDS011;17947;50.672;6.076;2023-02-18T06:02:55;0.20;;;0.20;;
24137;SDS011;17947;50.672;6.076;2023-02-18T06:05:22;0.20;;;0.20;;
24137;SDS011;17947;50.672;6.076;2023-02-18T06:07:48;0.20;;;0.20;;
24137;SDS011;17947;50.672;6.076;2023-02-18T06:10:14;0.20;;;0.20;;
24137;SDS011;17947;50.672;6.076;2023-02-18T06:12:42;0.20;;;0.20;;
24137;SDS011;17947;50.672;6.076;2023-02-18T06:15:08;0.20;;;0.20;;
24137;SDS011;17947;50.672;6.076;2023-02-18T06:17:34;0.15;;;0.15;;
24137;SDS011;17947;50.672;6.076;2023-02-18T06:20:00;0.20;;;0.20;;
24137;SDS011;17947;50.672;6.076;2023-02-18T06:22:26;0.20;;;0.20;;
24137;SDS011;17947;50.672;6.076;2023-02-18T06:24:52;0.20;;;0.20;;
24137;SDS011;17947;50.672;6.076;2023-02-18T06:27:18;0.10;;;0.10;;
24137;SDS011;17947;50.672;6.076;2023-02-18T06:29:44;0.20;;;0.20;;
24137;SDS011;17947;50.672;6.076;2023-02-18T06:32:10;0.40;;;0.40;;
24137;SDS011;17947;50.672;6.076;2023-02-18T06:34:36;0.20;;;0.20;;
24137;SDS011;17947;50.672;6.076;2023-02-18T06:37:02;0.20;;;0.20;;
24137;SDS011;17947;50.672;6.076;2023-02-18T06:39:28;0.20;;;0.20;;
24137;SDS011;17947;50.672;6.076;2023-02-18T06:41:54;0.20;;;0.20;;
24137;SDS011;17947;50.672;6.076;2023-02-18T06:44:20;0.20;;;0.20;;
24137;SDS011;17947;50.672;6.076;2023-02-18T06:46:46;0.20;;;0.20;;
24137;SDS011;17947;50.672;6.076;2023-02-18T06:49:12;0.50;;;0.20;;
24137;SDS011;17947;50.672;6.076;2023-02-18T06:51:38;0.25;;;0.25;;
24137;SDS011;17947;50.672;6.076;2023-02-18T06:54:04;0.20;;;0.20;;
24137;SDS011;17947;50.672;6.076;2023-02-18T06:56:30;0.17;;;0.17;;
24137;SDS011;17947;50.672;6.076;2023-02-18T06:58:56;0.20;;;0.20;;
24137;SDS011;17947;50.672;6.076;2023-02-18T07:01:22;0.10;;;0.10;;
24137;SDS011;17947;50.672;6.076;2023-02-18T07:03:48;0.20;;;0.20;;
24137;SDS011;17947;50.672;6.076;2023-02-18T07:06:14;0.20;;;0.20;;
24137;SDS011;17947;50.672;6.076;2023-02-18T07:08:40;0.20;;;0.20;;
24137;SDS011;17947;50.672;6.076;2023-02-18T07:11:07;0.20;;;0.20;;
24137;SDS011;17947;50.672;6.076;2023-02-18T07:13:33;0.20;;;0.20;;
24137;SDS011;17947;50.672;6.076;2023-02-18T07:15:58;0.20;;;0.20;;
24137;SDS011;17947;50.672;6.076;2023-02-18T07:18:24;0.20;;;0.20;;
24137;SDS011;17947;50.672;6.076;2023-02-18T07:20:50;0.10;;;0.10;;
24137;SDS011;17947;50.672;6.076;2023-02-18T07:23:16;0.30;;;0.30;;
24137;SDS011;17947;50.672;6.076;2023-02-18T07:25:42;0.20;;;0.20;;
24137;SDS011;17947;50.672;6.076;2023-02-18T07:28:09;0.20;;;0.20;;
24137;SDS011;17947;50.672;6.076;2023-02-18T07:30:35;0.20;;;0.20;;
24137;SDS011;17947;50.672;6.076;2023-02-18T07:33:01;0.20;;;0.20;;
24137;SDS011;17947;50.672;6.076;2023-02-18T07:35:27;0.20;;;0.20;;
24137;SDS011;17947;50.672;6.076;2023-02-18T07:37:53;0.20;;;0.20;;
24137;SDS011;17947;50.672;6.076;2023-02-18T07:40:20;0.20;;;0.20;;
24137;SDS011;17947;50.672;6.076;2023-02-18T07:42:47;0.30;;;0.30;;
24137;SDS011;17947;50.672;6.076;2023-02-18T07:45:13;0.30;;;0.30;;
24137;SDS011;17947;50.672;6.076;2023-02-18T07:47:39;0.22;;;0.22;;
24137;SDS011;17947;50.672;6.076;2023-02-18T07:50:07;0.20;;;0.20;;
24137;SDS011;17947;50.672;6.076;2023-02-18T07:52:33;0.30;;;0.30;;
24137;SDS011;17947;50.672;6.076;2023-02-18T07:54:59;0.45;;;0.30;;
24137;SDS011;17947;50.672;6.076;2023-02-18T07:57:25;0.20;;;0.20;;
24137;SDS011;17947;50.672;6.076;2023-02-18T07:59:51;0.30;;;0.30;;
24137;SDS011;17947;50.672;6.076;2023-02-18T08:02:19;1.38;;;0.40;;
24137;SDS011;17947;50.672;6.076;2023-02-18T08:04:47;0.35;;;0.35;;
24137;SDS011;17947;50.672;6.076;2023-02-18T08:07:14;0.30;;;0.30;;
24137;SDS011;17947;50.672;6.076;2023-02-18T08:09:41;0.32;;;0.32;;
24137;SDS011;17947;50.672;6.076;2023-02-18T08:12:07;0.40;;;0.30;;
24137;SDS011;17947;50.672;6.076;2023-02-18T08:14:33;1.40;;;0.40;;
24137;SDS011;17947;50.672;6.076;2023-02-18T08:16:59;0.47;;;0.40;;
24137;SDS011;17947;50.672;6.076;2023-02-18T08:19:25;0.30;;;0.30;;
24137;SDS011;17947;50.672;6.076;2023-02-18T08:21:52;0.65;;;0.30;;
24137;SDS011;17947;50.672;6.076;2023-02-18T08:24:18;0.95;;;0.40;;
24137;SDS011;17947;50.672;6.076;2023-02-18T08:26:44;0.65;;;0.50;;
24137;SDS011;17947;50.672;6.076;2023-02-18T08:29:10;0.73;;;0.40;;
24137;SDS011;17947;50.672;6.076;2023-02-18T08:31:36;0.93;;;0.47;;
24137;SDS011;17947;50.672;6.076;2023-02-18T08:34:02;0.93;;;0.40;;
24137;SDS011;17947;50.672;6.076;2023-02-18T08:36:28;0.90;;;0.30;;
24137;SDS011;17947;50.672;6.076;2023-02-18T08:38:55;0.57;;;0.30;;
24137;SDS011;17947;50.672;6.076;2023-02-18T08:41:22;0.30;;;0.30;;
24137;SDS011;17947;50.672;6.076;2023-02-18T08:43:48;2.00;;;0.38;;
24137;SDS011;17947;50.672;6.076;2023-02-18T08:46:14;0.60;;;0.40;;
24137;SDS011;17947;50.672;6.076;2023-02-18T08:48:41;0.43;;;0.40;;
24137;SDS011;17947;50.672;6.076;2023-02-18T08:51:14;0.90;;;0.30;;
24137;SDS011;17947;50.672;6.076;2023-02-18T08:53:40;0.50;;;0.47;;
24137;SDS011;17947;50.672;6.076;2023-02-18T08:56:07;0.90;;;0.40;;
24137;SDS011;17947;50.672;6.076;2023-02-18T08:58:33;0.77;;;0.40;;
24137;SDS011;17947;50.672;6.076;2023-02-18T09:01:02;0.40;;;0.40;;
24137;SDS011;17947;50.672;6.076;2023-02-18T09:03:28;0.30;;;0.30;;
24137;SDS011;17947;50.672;6.076;2023-02-18T09:05:54;0.55;;;0.40;;
24137;SDS011;17947;50.672;6.076;2023-02-18T09:08:20;0.75;;;0.40;;
24137;SDS011;17947;50.672;6.076;2023-02-18T09:10:47;0.55;;;0.40;;
24137;SDS011;17947;50.672;6.076;2023-02-18T09:13:13;0.30;;;0.30;;
24137;SDS011;17947;50.672;6.076;2023-02-18T09:15:39;0.50;;;0.40;;
24137;SDS011;17947;50.672;6.076;2023-02-18T09:18:05;1.48;;;0.57;;
24137;SDS011;17947;50.672;6.076;2023-02-18T09:20:31;0.65;;;0.50;;
24137;SDS011;17947;50.672;6.076;2023-02-18T09:22:57;0.50;;;0.50;;
24137;SDS011;17947;50.672;6.076;2023-02-18T09:25:25;0.40;;;0.40;;
24137;SDS011;17947;50.672;6.076;2023-02-18T09:27:51;0.93;;;0.40;;
24137;SDS011;17947;50.672;6.076;2023-02-18T09:30:17;1.95;;;0.57;;
24137;SDS011;17947;50.672;6.076;2023-02-18T09:32:43;1.25;;;0.50;;
24137;SDS011;17947;50.672;6.076;2023-02-18T09:35:09;0.75;;;0.57;;
24137;SDS011;17947;50.672;6.076;2023-02-18T09:37:36;1.70;;;0.60;;
24137;SDS011;17947;50.672;6.076;2023-02-18T09:40:04;1.98;;;0.50;;
24137;SDS011;17947;50.672;6.076;2023-02-18T09:42:31;0.70;;;0.52;;
24137;SDS011;17947;50.672;6.076;2023-02-18T09:44:59;0.63;;;0.50;;
24137;SDS011;17947;50.672;6.076;2023-02-18T09:47:38;1.50;;;0.40;;
24137;SDS011;17947;50.672;6.076;2023-02-18T09:50:17;1.00;;;0.60;;
24137;SDS011;17947;50.672;6.076;2023-02-18T09:52:44;0.57;;;0.40;;
24137;SDS011;17947;50.672;6.076;2023-02-18T09:55:14;1.13;;;0.40;;
24137;SDS011;17947;50.672;6.076;2023-02-18T09:57:58;2.50;;;0.47;;
24137;SDS011;17947;50.672;6.076;2023-02-18T10:02:56;1.70;;;0.55;;
24137;SDS011;17947;50.672;6.076;2023-02-18T10:05:24;2.40;;;0.50;;
24137;SDS011;17947;50.672;6.076;2023-02-18T10:07:53;0.93;;;0.50;;
24137;SDS011;17947;50.672;6.076;2023-02-18T10:12:45;1.80;;;0.45;;
24137;SDS011;17947;50.672;6.076;2023-02-18T10:15:19;3.30;;;0.75;;
24137;SDS011;17947;50.672;6.076;2023-02-18T10:17:46;0.65;;;0.40;;
24137;SDS011;17947;50.672;6.076;2023-02-18T10:20:15;0.57;;;0.40;;
24137;SDS011;17947;50.672;6.076;2023-02-18T10:22:41;0.73;;;0.50;;
24137;SDS011;17947;50.672;6.076;2023-02-18T10:25:08;0.88;;;0.45;;
24137;SDS011;17947;50.672;6.076;2023-02-18T10:27:42;0.57;;;0.40;;
24137;SDS011;17947;50.672;6.076;2023-02-18T10:32:42;0.77;;;0.50;;
24137;SDS011;17947;50.672;6.076;2023-02-18T10:35:21;1.85;;;0.55;;
24137;SDS011;17947;50.672;6.076;2023-02-18T10:43:21;1.02;;;0.65;;
24137;SDS011;17947;50.672;6.076;2023-02-18T10:50:48;0.73;;;0.50;;
24137;SDS011;17947;50.672;6.076;2023-02-18T10:55:42;0.45;;;0.40;;
24137;SDS011;17947;50.672;6.076;2023-02-18T10:58:29;0.50;;;0.50;;
24137;SDS011;17947;50.672;6.076;2023-02-18T11:00:55;1.15;;;0.50;;
24137;SDS011;17947;50.672;6.076;2023-02-18T11:03:22;2.55;;;0.50;;
24137;SDS011;17947;50.672;6.076;2023-02-18T11:05:50;0.82;;;0.57;;
24137;SDS011;17947;50.672;6.076;2023-02-18T11:08:17;1.08;;;0.57;;
24137;SDS011;17947;50.672;6.076;2023-02-18T11:10:45;0.63;;;0.60;;
24137;SDS011;17947;50.672;6.076;2023-02-18T11:13:12;1.40;;;0.60;;
24137;SDS011;17947;50.672;6.076;2023-02-18T11:15:52;0.70;;;0.50;;
24137;SDS011;17947;50.672;6.076;2023-02-18T11:20:55;0.45;;;0.43;;
24137;SDS011;17947;50.672;6.076;2023-02-18T11:23:22;0.50;;;0.40;;
24137;SDS011;17947;50.672;6.076;2023-02-18T11:25:54;0.55;;;0.35;;
24137;SDS011;17947;50.672;6.076;2023-02-18T11:31:06;0.43;;;0.40;;
24137;SDS011;17947;50.672;6.076;2023-02-18T11:33:34;0.40;;;0.40;;
24137;SDS011;17947;50.672;6.076;2023-02-18T11:36:18;0.52;;;0.47;;
24137;SDS011;17947;50.672;6.076;2023-02-18T11:38:51;0.40;;;0.40;;
24137;SDS011;17947;50.672;6.076;2023-02-18T11:41:40;0.45;;;0.45;;
24137;SDS011;17947;50.672;6.076;2023-02-18T11:44:04;0.40;;;0.40;;
24137;SDS011;17947;50.672;6.076;2023-02-18T11:46:32;0.85;;;0.50;;
24137;SDS011;17947;50.672;6.076;2023-02-18T11:49:19;0.70;;;0.50;;
24137;SDS011;17947;50.672;6.076;2023-02-18T11:51:45;0.52;;;0.52;;
24137;SDS011;17947;50.672;6.076;2023-02-18T11:54:23;0.88;;;0.55;;
24137;SDS011;17947;50.672;6.076;2023-02-18T11:56:59;0.57;;;0.47;;
24137;SDS011;17947;50.672;6.076;2023-02-18T11:59:28;0.82;;;0.50;;
24137;SDS011;17947;50.672;6.076;2023-02-18T12:04:25;0.40;;;0.40;;
24137;SDS011;17947;50.672;6.076;2023-02-18T12:06:54;0.35;;;0.35;;
24137;SDS011;17947;50.672;6.076;2023-02-18T12:09:27;0.40;;;0.40;;
24137;SDS011;17947;50.672;6.076;2023-02-18T12:11:58;0.45;;;0.40;;
24137;SDS011;17947;50.672;6.076;2023-02-18T12:14:25;0.75;;;0.47;;
24137;SDS011;17947;50.672;6.076;2023-02-18T12:22:22;0.30;;;0.30;;
24137;SDS011;17947;50.672;6.076;2023-02-18T12:32:33;1.35;;;0.45;;
24137;SDS011;17947;50.672;6.076;2023-02-18T12:45:35;0.50;;;0.50;;
24137;SDS011;17947;50.672;6.076;2023-02-18T12:53:44;0.70;;;0.50;;
24137;SDS011;17947;50.672;6.076;2023-02-18T13:11:56;0.85;;;0.52;;
24137;SDS011;17947;50.672;6.076;2023-02-18T13:16:51;0.73;;;0.40;;
24137;SDS011;17947;50.672;6.076;2023-02-18T13:19:21;1.25;;;0.45;;
24137;SDS011;17947;50.672;6.076;2023-02-18T13:21:49;0.63;;;0.50;;
24137;SDS011;17947;50.672;6.076;2023-02-18T13:24:23;1.40;;;0.43;;
24137;SDS011;17947;50.672;6.076;2023-02-18T13:26:52;0.40;;;0.40;;
24137;SDS011;17947;50.672;6.076;2023-02-18T13:29:23;0.40;;;0.40;;
24137;SDS011;17947;50.672;6.076;2023-02-18T13:37:02;0.30;;;0.30;;
24137;SDS011;17947;50.672;6.076;2023-02-18T13:39:30;0.40;;;0.40;;
24137;SDS011;17947;50.672;6.076;2023-02-18T13:42:10;0.63;;;0.50;;
24137;SDS011;17947;50.672;6.076;2023-02-18T13:47:34;0.40;;;0.30;;
24137;SDS011;17947;50.672;6.076;2023-02-18T13:52:50;0.55;;;0.52;;
24137;SDS011;17947;50.672;6.076;2023-02-18T13:55:17;0.50;;;0.40;;
24137;SDS011;17947;50.672;6.076;2023-02-18T13:57:48;1.35;;;0.50;;
24137;SDS011;17947;50.672;6.076;2023-02-18T14:00:21;0.45;;;0.45;;
24137;SDS011;17947;50.672;6.076;2023-02-18T14:02:58;0.77;;;0.47;;
24137;SDS011;17947;50.672;6.076;2023-02-18T14:05:24;0.40;;;0.40;;
24137;SDS011;17947;50.672;6.076;2023-02-18T14:08:10;0.77;;;0.50;;
24137;SDS011;17947;50.672;6.076;2023-02-18T14:10:37;0.85;;;0.50;;
24137;SDS011;17947;50.672;6.076;2023-02-18T14:13:18;0.63;;;0.40;;
24137;SDS011;17947;50.672;6.076;2023-02-18T14:15:47;0.40;;;0.40;;
24137;SDS011;17947;50.672;6.076;2023-02-18T14:20:45;0.30;;;0.30;;
24137;SDS011;17947;50.672;6.076;2023-02-18T14:31:04;0.52;;;0.52;;
24137;SDS011;17947;50.672;6.076;2023-02-18T14:33:31;0.52;;;0.43;;
24137;SDS011;17947;50.672;6.076;2023-02-18T14:38:53;0.63;;;0.40;;
24137;SDS011;17947;50.672;6.076;2023-02-18T14:49:15;1.35;;;0.50;;
24137;SDS011;17947;50.672;6.076;2023-02-18T14:51:44;0.68;;;0.50;;
24137;SDS011;17947;50.672;6.076;2023-02-18T14:54:16;0.80;;;0.68;;
24137;SDS011;17947;50.672;6.076;2023-02-18T14:56:56;0.77;;;0.50;;
24137;SDS011;17947;50.672;6.076;2023-02-18T14:59:30;1.55;;;0.85;;
24137;SDS011;17947;50.672;6.076;2023-02-18T15:01:59;0.93;;;0.70;;
24137;SDS011;17947;50.672;6.076;2023-02-18T15:04:25;1.45;;;0.65;;
24137;SDS011;17947;50.672;6.076;2023-02-18T15:07:01;0.73;;;0.60;;
24137;SDS011;17947;50.672;6.076;2023-02-18T15:09:27;1.65;;;0.70;;
24137;SDS011;17947;50.672;6.076;2023-02-18T15:12:03;2.15;;;0.77;;
24137;SDS011;17947;50.672;6.076;2023-02-18T15:14:39;1.08;;;0.70;;
24137;SDS011;17947;50.672;6.076;2023-02-18T15:17:10;1.27;;;0.75;;
24137;SDS011;17947;50.672;6.076;2023-02-18T15:19:38;2.63;;;0.75;;
24137;SDS011;17947;50.672;6.076;2023-02-18T15:22:05;1.83;;;0.82;;
24137;SDS011;17947;50.672;6.076;2023-02-18T15:24:39;2.72;;;0.75;;
24137;SDS011;17947;50.672;6.076;2023-02-18T15:29:37;1.02;;;0.70;;
24137;SDS011;17947;50.672;6.076;2023-02-18T15:32:18;3.10;;;0.60;;
24137;SDS011;17947;50.672;6.076;2023-02-18T15:34:45;2.10;;;0.50;;
24137;SDS011;17947;50.672;6.076;2023-02-18T15:37:12;1.30;;;0.70;;
24137;SDS011;17947;50.672;6.076;2023-02-18T15:39:38;4.32;;;0.90;;
24137;SDS011;17947;50.672;6.076;2023-02-18T15:44:51;3.70;;;0.90;;
24137;SDS011;17947;50.672;6.076;2023-02-18T15:47:17;9.85;;;1.80;;
24137;SDS011;17947;50.672;6.076;2023-02-18T15:49:45;6.00;;;1.15;;
24137;SDS011;17947;50.672;6.076;2023-02-18T15:52:12;7.00;;;1.25;;
24137;SDS011;17947;50.672;6.076;2023-02-18T15:54:38;6.05;;;1.10;;
24137;SDS011;17947;50.672;6.076;2023-02-18T15:57:05;6.53;;;1.50;;
24137;SDS011;17947;50.672;6.076;2023-02-18T15:59:33;6.63;;;1.13;;
24137;SDS011;17947;50.672;6.076;2023-02-18T16:02:19;3.75;;;1.30;;
24137;SDS011;17947;50.672;6.076;2023-02-18T16:04:53;8.60;;;1.52;;
24137;SDS011;17947;50.672;6.076;2023-02-18T16:09:46;8.50;;;1.88;;
24137;SDS011;17947;50.672;6.076;2023-02-18T16:12:26;20.60;;;4.60;;
24137;SDS011;17947;50.672;6.076;2023-02-18T16:14:52;18.05;;;4.40;;
24137;SDS011;17947;50.672;6.076;2023-02-18T16:17:20;13.95;;;3.80;;
24137;SDS011;17947;50.672;6.076;2023-02-18T16:19:48;16.48;;;4.10;;
24137;SDS011;17947;50.672;6.076;2023-02-18T16:22:23;10.82;;;3.92;;
24137;SDS011;17947;50.672;6.076;2023-02-18T16:24:49;11.82;;;3.45;;
24137;SDS011;17947;50.672;6.076;2023-02-18T16:27:19;13.90;;;4.00;;
24137;SDS011;17947;50.672;6.076;2023-02-18T16:29:45;13.98;;;4.10;;
24137;SDS011;17947;50.672;6.076;2023-02-18T16:32:15;13.88;;;3.58;;
24137;SDS011;17947;50.672;6.076;2023-02-18T16:34:41;11.07;;;3.20;;
24137;SDS011;17947;50.672;6.076;2023-02-18T16:37:08;10.93;;;3.40;;
24137;SDS011;17947;50.672;6.076;2023-02-18T16:39:52;12.00;;;3.50;;
24137;SDS011;17947;50.672;6.076;2023-02-18T16:42:19;9.18;;;3.42;;
24137;SDS011;17947;50.672;6.076;2023-02-18T16:44:46;10.27;;;2.95;;
24137;SDS011;17947;50.672;6.076;2023-02-18T16:47:14;9.98;;;3.05;;
24137;SDS011;17947;50.672;6.076;2023-02-18T16:49:41;7.68;;;2.80;;
24137;SDS011;17947;50.672;6.076;2023-02-18T16:52:09;8.73;;;2.90;;
24137;SDS011;17947;50.672;6.076;2023-02-18T16:54:40;7.55;;;2.47;;
24137;SDS011;17947;50.672;6.076;2023-02-18T16:57:06;6.65;;;2.22;;
24137;SDS011;17947;50.672;6.076;2023-02-18T16:59:32;6.68;;;2.55;;
24137;SDS011;17947;50.672;6.076;2023-02-18T17:01:58;6.32;;;2.13;;
24137;SDS011;17947;50.672;6.076;2023-02-18T17:04:24;5.93;;;2.13;;
24137;SDS011;17947;50.672;6.076;2023-02-18T17:06:50;8.02;;;2.47;;
24137;SDS011;17947;50.672;6.076;2023-02-18T17:09:17;5.60;;;2.00;;
24137;SDS011;17947;50.672;6.076;2023-02-18T17:11:45;8.27;;;2.20;;
24137;SDS011;17947;50.672;6.076;2023-02-18T17:14:18;8.90;;;2.33;;
24137;SDS011;17947;50.672;6.076;2023-02-18T17:16:45;5.90;;;2.17;;